»·PEaware :: N255SP KSBA-KBUR

N255SP :: KSBA-KBUR

FLIGHT INFORMATION

Flight Status: Arrived
Operator: Privately registered:
United States
More flights under this callsign
Pilot: Dário F. (22641)
Aircraft: CESSNA 310
(C310)
More flights by this aircraft type
Origin: KSBA Santa Barbara Mun
United States
Destination: KBUR Bob Hope-Burbank
United States
More flights between these airports :: More routes between these airports
Route:
File this flight plan on PilotEdge
Remarks:
Altitude:
(Current/Filed)
5,500ft
Speed:
(Current/Filed)
160kts
Departed: 23-Dec-18 03:42 PM
Arrived: 23-Dec-18 04:17 PM
Distance/Time
Traveled:
75nm/0:35
Distance/Time
To Go:
Arrived

Flight Plot

Page will automatically refresh every two minutes.


Map Options




Map Legend


Flown Route
Filed Route
Departure Airport
Arrival Airport
Navaid (VOR, NDB)
Fix

Horizontal Profiles

Position Reports

Time Latitude Longitude Heading Altitude Ground
Speed
23-Dec-18 15:26 34.432566 -119.835098 71 16ft 0kts
23-Dec-18 15:27 34.432566 -119.835098 71 16ft 0kts
23-Dec-18 15:28 34.432566 -119.835098 71 16ft 0kts
23-Dec-18 15:29 34.432566 -119.835098 71 16ft 0kts
23-Dec-18 15:30 34.432566 -119.835098 71 16ft 0kts
23-Dec-18 15:31 34.432566 -119.835098 71 16ft 0kts
23-Dec-18 15:32 34.432566 -119.835098 71 16ft 0kts
23-Dec-18 15:33 34.432566 -119.835098 71 16ft 0kts
23-Dec-18 15:34 34.432566 -119.835098 71 16ft 0kts
23-Dec-18 15:35 34.432566 -119.835098 71 16ft 0kts
23-Dec-18 15:36 34.432566 -119.835098 71 16ft 0kts
23-Dec-18 15:37 34.432612 -119.835288 198 16ft 6kts
23-Dec-18 15:38 34.429154 -119.835295 184 16ft 15kts
23-Dec-18 15:39 34.428713 -119.835320 172 15ft 0kts
23-Dec-18 15:40 34.427893 -119.835532 265 15ft 18kts
23-Dec-18 15:41 34.426559 -119.869971 266 640ft 121kts
23-Dec-18 15:42 34.420469 -119.912415 256 1291ft 134kts
23-Dec-18 15:43 34.410901 -119.957590 255 1491ft 142kts
23-Dec-18 15:44 34.387495 -119.979311 135 1951ft 133kts
23-Dec-18 15:45 34.390860 -119.935676 77 2380ft 131kts
23-Dec-18 15:46 34.398160 -119.894618 77 3261ft 121kts
23-Dec-18 15:47 34.405204 -119.854980 77 4159ft 120kts
23-Dec-18 15:48 34.412240 -119.815395 77 5063ft 123kts
23-Dec-18 15:49 34.420709 -119.767974 77 5487ft 170kts
23-Dec-18 15:50 34.431144 -119.709175 77 5486ft 183kts
23-Dec-18 15:51 34.431140 -119.648091 86 5487ft 184kts
23-Dec-18 15:52 34.417306 -119.590322 121 5485ft 184kts
23-Dec-18 15:53 34.391343 -119.536488 119 5485ft 184kts
23-Dec-18 15:54 34.366718 -119.483091 119 5484ft 180kts
23-Dec-18 15:55 34.359793 -119.425832 85 5485ft 179kts
23-Dec-18 15:56 34.361963 -119.365276 87 5485ft 179kts
23-Dec-18 15:57 34.363849 -119.305195 87 5485ft 179kts
23-Dec-18 15:58 34.365748 -119.244708 87 5485ft 179kts
23-Dec-18 15:59 34.367668 -119.184217 87 5485ft 179kts
23-Dec-18 16:00 34.369609 -119.123479 87 5485ft 179kts
23-Dec-18 16:01 34.371489 -119.062846 89 5484ft 179kts
23-Dec-18 16:02 34.367209 -119.002429 94 5487ft 179kts
23-Dec-18 16:03 34.362609 -118.942322 95 5522ft 179kts
23-Dec-18 16:04 34.357966 -118.881930 95 5521ft 179kts
23-Dec-18 16:05 34.348146 -118.822785 104 5521ft 179kts
23-Dec-18 16:06 34.334980 -118.764453 104 5521ft 179kts
23-Dec-18 16:07 34.322126 -118.707487 105 5521ft 179kts
23-Dec-18 16:08 34.309266 -118.650817 104 5521ft 178kts
23-Dec-18 16:09 34.296111 -118.592770 104 5521ft 178kts
23-Dec-18 16:10 34.283097 -118.535239 104 5520ft 178kts
23-Dec-18 16:11 34.277943 -118.481705 91 4416ft 125kts
23-Dec-18 16:12 34.268694 -118.442196 107 3138ft 131kts
23-Dec-18 16:13 34.243253 -118.414786 160 2998ft 137kts
23-Dec-18 16:14 34.210587 -118.402650 138 2164ft 103kts
23-Dec-18 16:15 34.198386 -118.373774 95 961ft 93kts
23-Dec-18 16:16 34.198409 -118.360386 354 718ft 5kts
23-Dec-18 16:17 34.199453 -118.358104 314 718ft 6kts
23-Dec-18 16:18 34.200809 -118.359669 36 726ft 0kts
23-Dec-18 16:19 34.200809 -118.359669 36 726ft 0kts
23-Dec-18 16:20 34.200809 -118.359669 36 726ft 0kts

Navigation Log

Ident Type
Flight plan parsing failed, navigation log unavailable